Terminal Aerodrome Forecast
Issued by NWS Pocatello, ID

Home | Current Version | Previous Version | Text Only | Print | Product List | Glossary On
Versions: 1 2 3 4 5 6 7 8 9 10 11 12 13
619
FTUS45 KPIH 232328
TAFIDA
TAF
KIDA 232328Z 2400/2424 23012G22KT P6SM VCTS SCT050CB SCT120
     FM240300 23011KT P6SM FEW050 SCT120
     FM241500 20011KT P6SM -SHRA SCT020 OVC040
     FM241900 21015G25KT P6SM -SHRA OVC040=

USA.gov is the U.S. government's official web portal to all federal, state and local government web resources and services.